Time;durP1;ratioP1;P1;durP2;ratioP2;P2;SDS_P1;SDS_P2;PMS_P1;PMS_P2;Temp;Humidity;BMP_temperature;BMP_pressure;BME280_temperature;BME280_humidity;BME280_pressure;Samples;Min_cycle;Max_cycle;Signal;HPM_P1;HPM_P2
2021/08/17 00:00:18;;;;;;;20.40;12.52;;;;;;;10.54;100.00;93356.94;2097606;28;20024;-85
2021/08/17 00:01:19;;;;;;;16.25;11.90;;;;;;;10.51;100.00;93354.34;2088998;28;20076;-83
2021/08/17 00:02:20;;;;;;;21.27;12.80;;;;;;;10.52;100.00;93351.25;2089473;28;20032;-85
2021/08/17 00:03:21;;;;;;;23.83;14.93;;;;;;;10.58;100.00;93346.97;2102729;28;20507;-84
2021/08/17 00:04:22;;;;;;;20.80;13.15;;;;;;;10.50;100.00;93347.50;2105753;28;20500;-83
2021/08/17 00:05:23;;;;;;;21.27;12.68;;;;;;;10.55;100.00;93341.66;2097758;28;20382;-83
2021/08/17 00:06:24;;;;;;;18.83;12.02;;;;;;;10.47;100.00;93346.38;2089394;28;20398;-82
2021/08/17 00:07:26;;;;;;;20.80;12.88;;;;;;;10.61;100.00;93344.63;2088818;28;20057;-83
2021/08/17 00:08:27;;;;;;;21.83;12.77;;;;;;;10.54;100.00;93345.50;2087565;28;20382;-82
2021/08/17 00:09:29;;;;;;;20.98;13.57;;;;;;;10.49;100.00;93346.75;2089212;28;20036;-85
2021/08/17 00:10:30;;;;;;;22.83;14.07;;;;;;;10.56;100.00;93351.19;2097962;28;20483;-84
2021/08/17 00:11:31;;;;;;;23.00;13.40;;;;;;;10.45;100.00;93347.97;2097683;28;20059;-82
2021/08/17 00:12:32;;;;;;;22.60;12.50;;;;;;;10.62;100.00;93346.88;2086890;28;20029;-81
2021/08/17 00:13:33;;;;;;;25.75;14.18;;;;;;;10.57;100.00;93347.34;2087107;28;20023;-85
2021/08/17 00:14:34;;;;;;;22.92;15.02;;;;;;;10.48;100.00;93355.16;2089115;28;20078;-83
2021/08/17 00:15:35;;;;;;;21.35;13.30;;;;;;;10.46;100.00;93357.47;2089316;28;20025;-84
2021/08/17 00:16:36;;;;;;;22.02;14.57;;;;;;;10.47;100.00;93351.72;2089501;28;20025;-83
2021/08/17 00:17:37;;;;;;;21.67;12.95;;;;;;;10.52;100.00;93350.50;2097547;28;20029;-85
2021/08/17 00:18:38;;;;;;;20.52;13.50;;;;;;;10.49;100.00;93356.66;2105567;28;20344;-84
2021/08/17 00:19:40;;;;;;;24.15;14.13;;;;;;;10.55;100.00;93357.69;2097511;28;20090;-82
2021/08/17 00:20:42;;;;;;;21.05;14.07;;;;;;;10.51;100.00;93371.13;2097652;28;20555;-82
2021/08/17 00:21:43;;;;;;;23.73;15.05;;;;;;;10.49;100.00;93362.78;2106162;28;20020;-83
2021/08/17 00:22:44;;;;;;;23.63;14.18;;;;;;;10.46;100.00;93362.84;2097528;28;20031;-83
2021/08/17 00:23:45;;;;;;;22.00;14.18;;;;;;;10.60;100.00;93357.22;2097080;28;20472;-85
2021/08/17 00:24:46;;;;;;;25.25;14.50;;;;;;;10.51;100.00;93357.75;2096965;28;20017;-83
2021/08/17 00:25:47;;;;;;;26.08;14.50;;;;;;;10.54;100.00;93359.63;2085899;28;20083;-84
2021/08/17 00:26:48;;;;;;;25.10;14.07;;;;;;;10.67;100.00;93365.13;2089277;28;20400;-85
2021/08/17 00:27:49;;;;;;;21.00;14.10;;;;;;;10.58;100.00;93362.25;2105897;28;20024;-82
2021/08/17 00:28:50;;;;;;;24.55;15.00;;;;;;;10.54;100.00;93364.22;2106008;28;20485;-83
2021/08/17 00:29:51;;;;;;;27.40;14.65;;;;;;;10.58;100.00;93356.91;2096690;28;20021;-85
2021/08/17 00:30:52;;;;;;;25.83;14.48;;;;;;;10.44;100.00;93363.22;2097687;28;20039;-83
2021/08/17 00:31:53;;;;;;;25.30;14.65;;;;;;;10.32;100.00;93359.25;2097432;28;20035;-85
2021/08/17 00:32:54;;;;;;;24.27;14.40;;;;;;;10.37;100.00;93363.34;2089019;28;20385;-85
2021/08/17 00:33:55;;;;;;;22.75;13.80;;;;;;;10.42;100.00;93367.47;2097568;28;20036;-85
2021/08/17 00:34:56;;;;;;;22.80;14.57;;;;;;;10.31;100.00;93364.97;2097135;28;20025;-85
2021/08/17 00:35:59;;;;;;;24.42;15.25;;;;;;;10.42;100.00;93367.47;2088818;28;20539;-82
2021/08/17 00:37:00;;;;;;;23.92;13.88;;;;;;;10.34;100.00;93364.91;2098091;28;20091;-84
2021/08/17 00:38:02;;;;;;;24.70;13.63;;;;;;;10.40;100.00;93367.88;2095420;28;20485;-85
2021/08/17 00:39:03;;;;;;;23.42;13.60;;;;;;;10.24;100.00;93373.09;2089227;28;20382;-83
2021/08/17 00:40:04;;;;;;;21.55;14.20;;;;;;;10.18;100.00;93370.09;2097219;28;20059;-83
2021/08/17 00:41:12;;;;;;;23.90;14.43;;;;;;;10.23;100.00;93369.66;2105089;28;20020;-85
2021/08/17 00:42:13;;;;;;;19.13;12.25;;;;;;;10.27;100.00;93375.75;2096291;28;20500;-82
2021/08/17 00:43:14;;;;;;;25.60;14.60;;;;;;;10.25;100.00;93374.63;2088459;28;20056;-85
2021/08/17 00:44:20;;;;;;;20.95;14.20;;;;;;;10.19;100.00;93366.31;2089114;28;20025;-82
2021/08/17 00:45:24;;;;;;;19.08;13.30;;;;;;;10.23;100.00;93371.59;2086424;28;20033;-83
2021/08/17 00:46:25;;;;;;;21.98;13.73;;;;;;;10.18;100.00;93372.03;2097290;28;20062;-85
2021/08/17 00:47:26;;;;;;;25.75;13.65;;;;;;;10.14;100.00;93369.44;2096575;28;20071;-84
2021/08/17 00:48:26;;;;;;;24.13;13.90;;;;;;;10.11;100.00;93374.84;2105596;28;20028;-84
2021/08/17 00:49:28;;;;;;;25.58;14.95;;;;;;;10.18;100.00;93374.69;2105606;28;20053;-84
2021/08/17 00:50:33;;;;;;;22.00;13.75;;;;;;;10.17;100.00;93375.88;2089082;28;20024;-82
2021/08/17 00:51:34;;;;;;;19.85;13.75;;;;;;;10.16;100.00;93388.47;2090052;28;20025;-82
2021/08/17 00:52:35;;;;;;;24.40;14.85;;;;;;;10.19;100.00;93382.31;2088483;28;20021;-83
2021/08/17 00:53:36;;;;;;;23.65;13.48;;;;;;;10.16;100.00;93385.03;2089156;28;20025;-85
2021/08/17 00:54:40;;;;;;;23.08;13.80;;;;;;;10.16;100.00;93385.03;2097377;28;20029;-82
2021/08/17 00:55:41;;;;;;;22.25;13.70;;;;;;;10.23;100.00;93392.97;2097304;28;20477;-83
2021/08/17 00:56:42;;;;;;;24.98;14.40;;;;;;;10.11;100.00;93388.94;2097298;28;20520;-82
2021/08/17 00:57:44;;;;;;;24.67;15.00;;;;;;;10.11;100.00;93386.25;2105667;28;20045;-84
2021/08/17 00:58:45;;;;;;;21.27;13.85;;;;;;;10.17;100.00;93386.56;2096968;28;20017;-82
2021/08/17 00:59:46;;;;;;;21.20;13.32;;;;;;;10.15;100.00;93389.63;2088846;28;20025;-84
2021/08/17 01:00:48;;;;;;;21.27;13.68;;;;;;;10.13;100.00;93393.88;2088914;28;20025;-84
2021/08/17 01:01:50;;;;;;;21.55;13.23;;;;;;;10.17;100.00;93397.25;2097325;28;20496;-85
2021/08/17 01:02:51;;;;;;;20.42;12.50;;;;;;;10.20;100.00;93397.19;2086107;28;20596;-83
2021/08/17 01:03:52;;;;;;;18.75;12.57;;;;;;;10.21;100.00;93395.28;2088507;28;20032;-83
2021/08/17 01:04:52;;;;;;;18.85;11.95;;;;;;;10.23;100.00;93392.97;2088863;28;20028;-85
2021/08/17 01:05:55;;;;;;;20.25;13.75;;;;;;;10.26;100.00;93398.25;2096764;28;20031;-83
2021/08/17 01:06:56;;;;;;;20.95;12.98;;;;;;;10.26;100.00;93392.16;2105739;28;20404;-86
2021/08/17 01:07:59;;;;;;;22.67;13.52;;;;;;;10.20;100.00;93391.09;2094968;28;20082;-84
2021/08/17 01:09:00;;;;;;;23.95;13.70;;;;;;;10.18;100.00;93386.13;2097630;28;20495;-83
2021/08/17 01:10:03;;;;;;;23.20;13.75;;;;;;;10.22;100.00;93396.78;2096437;28;20028;-85
2021/08/17 01:11:05;;;;;;;25.50;13.18;;;;;;;10.18;100.00;93388.81;2089452;28;20048;-84
2021/08/17 01:12:07;;;;;;;25.73;12.90;;;;;;;10.20;100.00;93388.41;2089108;28;20112;-84
2021/08/17 01:13:08;;;;;;;21.67;13.88;;;;;;;10.24;100.00;93391.78;2097000;28;20472;-82
2021/08/17 01:14:10;;;;;;;25.17;13.15;;;;;;;10.14;100.00;93396.16;2097104;28;20112;-84
2021/08/17 01:15:12;;;;;;;18.83;13.25;;;;;;;10.24;100.00;93397.13;2096351;28;20020;-83
2021/08/17 01:16:13;;;;;;;19.35;11.95;;;;;;;10.15;100.00;93399.56;2089124;28;20025;-83
2021/08/17 01:17:16;;;;;;;20.08;12.98;;;;;;;10.22;100.00;93404.78;2097079;28;20035;-84
2021/08/17 01:18:17;;;;;;;21.95;13.38;;;;;;;10.22;100.00;93394.09;2105624;28;20388;-83
2021/08/17 01:19:19;;;;;;;21.05;12.65;;;;;;;10.19;100.00;93395.69;2096957;28;20612;-83
2021/08/17 01:20:20;;;;;;;18.45;12.05;;;;;;;10.28;100.00;93401.28;2080938;28;20425;-84
2021/08/17 01:21:22;;;;;;;22.02;13.15;;;;;;;10.20;100.00;93404.44;2096756;28;20021;-83
2021/08/17 01:22:23;;;;;;;18.85;12.90;;;;;;;10.11;100.00;93402.28;2096992;28;20059;-82
2021/08/17 01:23:26;;;;;;;19.83;12.77;;;;;;;10.03;100.00;93404.31;2105501;28;20484;-82
2021/08/17 01:24:27;;;;;;;18.17;11.60;;;;;;;9.93;100.00;93409.81;2105310;28;20028;-83
2021/08/17 01:25:33;;;;;;;20.73;11.80;;;;;;;9.95;100.00;93410.16;2096104;28;20377;-84
2021/08/17 01:26:34;;;;;;;18.33;12.00;;;;;;;9.93;100.00;93410.56;2090975;28;20032;-82
2021/08/17 01:27:37;;;;;;;22.30;11.75;;;;;;;10.01;100.00;93409.31;2096854;28;20102;-84
2021/08/17 01:28:38;;;;;;;19.15;11.77;;;;;;;9.95;100.00;93416.25;2097253;28;20020;-86
2021/08/17 01:29:41;;;;;;;20.45;11.60;;;;;;;9.89;100.00;93415.19;2096979;28;20135;-84
2021/08/17 01:30:42;;;;;;;17.42;12.15;;;;;;;9.94;100.00;93419.34;2096985;28;20565;-82
2021/08/17 01:31:43;;;;;;;14.48;9.80;;;;;;;9.96;100.00;93417.00;2105239;28;20020;-84
2021/08/17 01:32:46;;;;;;;15.68;10.32;;;;;;;9.89;100.00;93415.19;2113196;28;20062;-83
2021/08/17 01:33:47;;;;;;;18.77;10.20;;;;;;;9.79;100.00;93408.13;2105249;28;20049;-84
2021/08/17 01:34:48;;;;;;;18.45;10.20;;;;;;;9.68;100.00;93420.84;2088512;28;20481;-82
2021/08/17 01:35:49;;;;;;;12.35;8.88;;;;;;;9.55;100.00;93415.28;2096801;28;20048;-86
2021/08/17 01:36:50;;;;;;;13.82;8.40;;;;;;;9.55;100.00;93418.69;2105259;28;20081;-82
2021/08/17 01:37:51;;;;;;;14.02;9.35;;;;;;;9.63;100.00;93421.28;2101357;28;20019;-82
2021/08/17 01:38:52;;;;;;;14.75;9.93;;;;;;;9.49;100.00;93420.31;2113599;28;20027;-84
2021/08/17 01:40:05;;;;;;;14.30;9.10;;;;;;;9.43;100.00;93423.81;2122103;27;20027;-85
2021/08/17 01:41:06;;;;;;;14.82;9.32;;;;;;;9.38;100.00;93430.34;2105049;28;20432;-83
2021/08/17 01:42:07;;;;;;;16.35;8.85;;;;;;;9.38;100.00;93433.03;2087502;28;20114;-84
2021/08/17 01:43:08;;;;;;;14.80;8.88;;;;;;;9.30;100.00;93424.34;2086902;28;20036;-83
2021/08/17 01:44:10;;;;;;;14.20;8.68;;;;;;;9.27;100.00;93427.81;2096609;28;20556;-84
2021/08/17 01:45:13;;;;;;;16.77;8.82;;;;;;;9.20;100.00;93427.91;2096950;28;20112;-83
2021/08/17 01:46:14;;;;;;;13.38;8.57;;;;;;;9.24;100.00;93433.19;2105420;28;20020;-84
2021/08/17 01:47:15;;;;;;;12.68;8.43;;;;;;;9.13;100.00;93424.53;2104993;28;20035;-83
2021/08/17 01:48:16;;;;;;;11.20;7.88;;;;;;;8.95;100.00;93432.75;2096812;28;20032;-82
2021/08/17 01:49:20;;;;;;;13.10;8.85;;;;;;;8.87;100.00;93434.75;2104712;28;20385;-83
2021/08/17 01:50:21;;;;;;;12.68;8.00;;;;;;;8.90;100.00;93439.25;2093599;28;20098;-84
2021/08/17 01:51:22;;;;;;;11.35;7.82;;;;;;;8.73;100.00;93438.28;2105057;28;20024;-83
2021/08/17 01:52:23;;;;;;;12.27;8.32;;;;;;;8.80;100.00;93432.88;2096789;28;20054;-82
2021/08/17 01:53:32;;;;;;;15.20;8.40;;;;;;;8.86;100.00;93437.78;2096742;28;20021;-83
2021/08/17 01:54:32;;;;;;;14.38;8.07;;;;;;;8.79;100.00;93434.06;2104799;28;20050;-85
2021/08/17 01:55:33;;;;;;;14.77;7.90;;;;;;;8.79;100.00;93439.38;2088253;28;20024;-84
2021/08/17 01:56:34;;;;;;;12.90;7.90;;;;;;;8.76;100.00;93434.09;2096504;28;20427;-84
2021/08/17 01:57:38;;;;;;;13.90;7.53;;;;;;;8.73;100.00;93432.94;2088465;28;20017;-84
2021/08/17 01:58:40;;;;;;;12.40;7.53;;;;;;;8.66;100.00;93441.03;2096953;28;20036;-82
2021/08/17 01:59:41;;;;;;;10.82;7.72;;;;;;;8.68;100.00;93437.97;2097171;28;20089;-82
2021/08/17 02:00:44;;;;;;;15.43;8.73;;;;;;;8.59;100.00;93441.09;2096175;28;20024;-85
2021/08/17 02:01:45;;;;;;;13.13;8.20;;;;;;;8.54;100.00;93444.19;2105346;28;20023;-83
2021/08/17 02:02:46;;;;;;;10.75;7.72;;;;;;;8.51;100.00;93442.28;2102226;28;20059;-84
2021/08/17 02:03:47;;;;;;;10.57;7.53;;;;;;;8.54;100.00;93452.16;2096407;28;20017;-84
2021/08/17 02:04:48;;;;;;;9.68;7.13;;;;;;;8.60;100.00;93449.84;2105202;28;20023;-83
2021/08/17 02:06:53;;;;;;;;;;;;;;;8.65;100.00;93441.41;2147013;27;20121;-81
2021/08/17 02:07:56;;;;;;;11.23;6.43;;;;;;;8.63;100.00;93443.72;2129179;27;19915;-84
2021/08/17 02:08:57;;;;;;;10.90;7.30;;;;;;;8.54;100.00;93444.94;2120791;28;20030;-85
2021/08/17 02:09:58;;;;;;;12.07;8.02;;;;;;;8.52;100.00;93449.91;2112305;28;20420;-83
2021/08/17 02:11:04;;;;;;;12.40;7.60;;;;;;;8.56;100.00;93447.97;2112283;28;20054;-83
2021/08/17 02:12:05;;;;;;;12.98;7.05;;;;;;;8.50;100.00;93446.13;2112752;28;20019;-83
2021/08/17 02:13:06;;;;;;;13.38;7.68;;;;;;;8.49;100.00;93440.03;2121252;27;20038;-84
2021/08/17 02:14:07;;;;;;;10.85;7.72;;;;;;;8.53;100.00;93451.41;2112523;28;20024;-82
2021/08/17 02:15:08;;;;;;;9.57;6.90;;;;;;;8.63;100.00;93444.47;2112469;28;20030;-83
2021/08/17 02:16:09;;;;;;;10.55;6.93;;;;;;;8.61;100.00;93452.13;2120724;27;20055;-84
2021/08/17 02:17:10;;;;;;;12.07;7.82;;;;;;;8.57;100.00;93446.81;2120671;28;20031;-83
2021/08/17 02:18:11;;;;;;;13.82;7.68;;;;;;;8.60;100.00;93442.59;2120295;27;20034;-84
2021/08/17 02:19:13;;;;;;;11.30;7.60;;;;;;;8.64;100.00;93445.97;2112439;28;20224;-85
2021/08/17 02:20:14;;;;;;;11.95;7.97;;;;;;;8.66;100.00;93442.94;2118629;28;20073;-82
2021/08/17 02:21:15;;;;;;;14.13;7.60;;;;;;;8.66;100.00;93445.59;2112133;28;20056;-82
2021/08/17 02:22:16;;;;;;;11.38;7.30;;;;;;;8.64;100.00;93440.66;2103983;28;20020;-85
2021/08/17 02:23:17;;;;;;;11.32;7.10;;;;;;;8.65;100.00;93439.53;2095257;28;20535;-82
2021/08/17 02:24:18;;;;;;;9.48;6.53;;;;;;;8.68;100.00;93451.28;2103797;28;20438;-85
2021/08/17 02:25:19;;;;;;;11.13;6.40;;;;;;;8.87;100.00;93441.97;2103958;28;20107;-85
2021/08/17 02:26:20;;;;;;;10.45;7.35;;;;;;;8.80;100.00;93442.81;2116577;28;20126;-84
2021/08/17 02:27:20;;;;;;;10.23;6.60;;;;;;;8.81;100.00;93444.31;2107880;28;20369;-83
2021/08/17 02:28:22;;;;;;;11.23;7.32;;;;;;;8.80;100.00;93442.81;2095120;28;20032;-84
2021/08/17 02:29:23;;;;;;;12.82;7.38;;;;;;;8.76;100.00;93436.75;2099843;28;20020;-84
2021/08/17 02:30:24;;;;;;;10.93;6.93;;;;;;;8.77;100.00;93446.25;2112147;28;20491;-84
2021/08/17 02:31:25;;;;;;;10.75;6.97;;;;;;;8.74;100.00;93439.06;2112073;28;20030;-84
2021/08/17 02:32:26;;;;;;;12.10;7.18;;;;;;;8.82;100.00;93443.94;2103946;28;20420;-84
2021/08/17 02:33:27;;;;;;;11.00;6.90;;;;;;;8.68;100.00;93448.63;2103918;28;20526;-84
2021/08/17 02:34:28;;;;;;;12.32;6.82;;;;;;;8.63;100.00;93443.72;2095246;28;20024;-84
2021/08/17 02:35:29;;;;;;;10.50;7.28;;;;;;;8.69;100.00;93448.25;2095232;28;20025;-83
2021/08/17 02:36:30;;;;;;;9.93;6.63;;;;;;;8.71;100.00;93445.19;2095184;28;20020;-84
2021/08/17 02:37:31;;;;;;;8.55;6.65;;;;;;;8.73;100.00;93438.28;2095524;28;20561;-84
2021/08/17 02:38:32;;;;;;;9.65;6.50;;;;;;;8.69;100.00;93447.47;2103612;28;20020;-83
2021/08/17 02:39:33;;;;;;;11.77;6.90;;;;;;;8.75;100.00;93449.31;2103787;28;20111;-84
2021/08/17 02:40:34;;;;;;;10.65;7.25;;;;;;;8.80;100.00;93442.81;2094910;28;20029;-84
2021/08/17 02:41:35;;;;;;;10.57;7.03;;;;;;;8.78;100.00;93448.53;2103500;28;20483;-84
2021/08/17 02:42:37;;;;;;;14.95;6.95;;;;;;;8.73;100.00;93440.19;2106577;28;20030;-82
2021/08/17 02:43:38;;;;;;;11.65;6.60;;;;;;;8.71;100.00;93437.94;2112230;28;20384;-83
2021/08/17 02:44:39;;;;;;;10.82;7.30;;;;;;;8.74;100.00;93434.50;2103701;28;20028;-82
2021/08/17 02:45:40;;;;;;;10.30;6.95;;;;;;;8.71;100.00;93437.94;2095181;28;20033;-84
2021/08/17 02:46:41;;;;;;;9.60;6.57;;;;;;;8.71;100.00;93448.59;2103050;28;20032;-83
2021/08/17 02:47:41;;;;;;;10.77;6.28;;;;;;;8.70;100.00;93446.34;2103828;28;20024;-82
2021/08/17 02:48:42;;;;;;;9.70;6.88;;;;;;;8.80;100.00;93442.81;2112075;28;20706;-82
2021/08/17 02:49:43;;;;;;;13.07;7.43;;;;;;;8.77;100.00;93439.00;2129052;27;20027;-82
2021/08/17 02:50:45;;;;;;;9.50;6.65;;;;;;;8.77;100.00;93443.59;2112147;28;20028;-84
2021/08/17 02:51:46;;;;;;;11.95;7.05;;;;;;;8.71;100.00;93450.50;2107250;28;20080;-81
2021/08/17 02:52:46;;;;;;;12.10;6.78;;;;;;;8.65;100.00;93447.53;2095259;28;20020;-85
2021/08/17 02:53:47;;;;;;;12.82;7.72;;;;;;;8.66;100.00;93453.59;2112206;28;20024;-82
2021/08/17 02:54:50;;;;;;;10.85;7.10;;;;;;;8.65;100.00;93452.06;2112119;28;20537;-85
2021/08/17 02:55:51;;;;;;;10.45;6.72;;;;;;;8.70;100.00;93449.75;2108270;28;20024;-83
2021/08/17 02:56:52;;;;;;;15.68;7.03;;;;;;;8.62;100.00;93448.28;2095166;28;20048;-84
2021/08/17 02:57:57;;;;;;;10.98;7.25;;;;;;;8.71;100.00;93453.94;2111723;28;20024;-82
2021/08/17 02:58:58;;;;;;;9.02;6.30;;;;;;;8.70;100.00;93459.66;2104270;28;20115;-82
2021/08/17 02:59:59;;;;;;;12.52;7.25;;;;;;;8.76;100.00;93460.72;2099463;28;20027;-84
2021/08/17 03:00:59;;;;;;;12.52;6.75;;;;;;;8.73;100.00;93458.84;2103716;28;20028;-81
2021/08/17 03:02:01;;;;;;;11.32;6.05;;;;;;;8.72;100.00;93455.44;2103539;28;20020;-83
2021/08/17 03:03:02;;;;;;;10.45;7.10;;;;;;;8.70;100.00;93454.31;2114992;28;20487;-84
2021/08/17 03:04:03;;;;;;;11.43;7.25;;;;;;;8.71;100.00;93451.25;2111865;28;20028;-85
2021/08/17 03:05:04;;;;;;;11.15;6.65;;;;;;;8.76;100.00;93455.41;2103533;28;20036;-83
2021/08/17 03:06:05;;;;;;;11.93;6.70;;;;;;;8.78;100.00;93455.75;2103223;28;20024;-84
2021/08/17 03:07:06;;;;;;;9.20;6.35;;;;;;;8.75;100.00;93454.66;2103228;28;20465;-83
2021/08/17 03:08:07;;;;;;;11.57;6.88;;;;;;;8.63;100.00;93454.38;2105611;28;20024;-84
2021/08/17 03:09:08;;;;;;;12.98;6.25;;;;;;;8.68;100.00;93457.38;2111515;28;20122;-85
2021/08/17 03:10:09;;;;;;;11.18;6.45;;;;;;;8.66;100.00;93450.94;2103719;28;20034;-83
2021/08/17 03:11:10;;;;;;;10.07;6.35;;;;;;;8.60;100.00;93452.50;2103641;28;20080;-86
2021/08/17 03:12:11;;;;;;;12.75;6.63;;;;;;;8.54;100.00;93454.84;2103245;28;20137;-85
2021/08/17 03:13:12;;;;;;;11.10;6.53;;;;;;;8.56;100.00;93453.31;2103934;28;20464;-82
2021/08/17 03:14:13;;;;;;;11.00;6.50;;;;;;;8.54;100.00;93450.25;2103215;28;20035;-83
2021/08/17 03:15:14;;;;;;;11.85;6.60;;;;;;;8.57;100.00;93448.72;2103386;28;20024;-82
2021/08/17 03:16:15;;;;;;;12.57;6.63;;;;;;;8.61;100.00;93446.03;2103671;28;20024;-85
2021/08/17 03:17:16;;;;;;;16.55;7.40;;;;;;;8.70;100.00;93447.09;2103361;28;20054;-85
2021/08/17 03:18:17;;;;;;;10.73;6.57;;;;;;;8.66;100.00;93448.28;2097675;28;20077;-85
2021/08/17 03:19:18;;;;;;;11.77;5.93;;;;;;;8.55;100.00;93446.44;2089696;28;20021;-86
2021/08/17 03:20:19;;;;;;;9.23;6.38;;;;;;;8.56;100.00;93444.56;2089043;28;20043;-84
2021/08/17 03:21:20;;;;;;;8.73;5.93;;;;;;;8.55;100.00;93449.09;2089749;28;20021;-81
2021/08/17 03:22:21;;;;;;;12.05;6.80;;;;;;;8.64;100.00;93445.22;2106007;28;20401;-83
2021/08/17 03:23:22;;;;;;;9.35;6.60;;;;;;;8.61;100.00;93441.47;2097729;28;20120;-82
2021/08/17 03:24:23;;;;;;;9.60;6.30;;;;;;;8.62;100.00;93444.88;2097904;28;20107;-82
2021/08/17 03:25:26;;;;;;;15.80;6.45;;;;;;;8.62;100.00;93442.22;2106144;28;20020;-82
2021/08/17 03:26:27;;;;;;;11.63;7.35;;;;;;;8.55;100.00;93443.03;2109105;28;20386;-82
2021/08/17 03:27:28;;;;;;;14.52;7.53;;;;;;;8.56;100.00;93444.56;2097721;28;20024;-82
2021/08/17 03:28:29;;;;;;;10.05;6.18;;;;;;;8.45;100.00;93443.88;2106128;28;20056;-82
2021/08/17 03:29:30;;;;;;;7.55;6.10;;;;;;;8.48;100.00;93448.44;2089476;28;20021;-85
2021/08/17 03:30:31;;;;;;;9.60;6.25;;;;;;;8.48;100.00;93451.09;2097560;28;20020;-83
2021/08/17 03:31:31;;;;;;;9.65;6.22;;;;;;;8.49;100.00;93445.38;2097344;28;20098;-82
2021/08/17 03:32:32;;;;;;;9.98;5.78;;;;;;;8.50;100.00;93441.53;2097526;28;20085;-83
2021/08/17 03:33:35;;;;;;;10.73;5.90;;;;;;;8.55;100.00;93445.69;2105963;28;20031;-83
2021/08/17 03:34:36;;;;;;;11.10;6.53;;;;;;;8.47;100.00;93439.69;2106426;28;20031;-82
2021/08/17 03:35:37;;;;;;;14.48;6.18;;;;;;;8.44;100.00;93443.13;2097732;28;20037;-82
2021/08/17 03:36:37;;;;;;;13.75;6.70;;;;;;;8.51;100.00;93443.03;2098004;28;20437;-83
2021/08/17 03:37:39;;;;;;;11.18;5.47;;;;;;;8.36;100.00;93438.97;2105408;28;20258;-83
2021/08/17 03:38:40;;;;;;;9.80;5.55;;;;;;;8.35;100.00;93442.03;2105856;28;20185;-82
2021/08/17 03:39:41;;;;;;;12.00;6.13;;;;;;;8.24;100.00;93437.53;2097742;28;20066;-84
2021/08/17 03:40:42;;;;;;;10.07;6.80;;;;;;;8.28;100.00;93440.94;2105112;28;20024;-85
2021/08/17 03:41:43;;;;;;;8.90;6.50;;;;;;;8.20;100.00;93449.38;2085289;28;20122;-85
2021/08/17 03:42:44;;;;;;;8.50;5.35;;;;;;;8.13;100.00;93444.09;2100017;28;20428;-82
2021/08/17 03:43:45;;;;;;;9.93;5.97;;;;;;;8.06;100.00;93444.91;2105885;28;20384;-83
2021/08/17 03:44:46;;;;;;;11.00;5.90;;;;;;;8.18;100.00;93441.03;2105980;28;20024;-85
2021/08/17 03:45:48;;;;;;;12.27;5.60;;;;;;;8.20;100.00;93446.69;2089487;28;20036;-85
2021/08/17 03:46:48;;;;;;;10.60;5.60;;;;;;;8.13;100.00;93444.88;2089512;28;20462;-83
2021/08/17 03:47:50;;;;;;;18.70;6.18;;;;;;;8.18;100.00;93449.75;2089004;28;20045;-84
2021/08/17 03:48:51;;;;;;;8.95;5.50;;;;;;;8.03;100.00;93443.78;2105688;28;20020;-83
2021/08/17 03:49:52;;;;;;;9.82;6.03;;;;;;;8.01;100.00;93445.31;2123323;27;20403;-83
2021/08/17 03:50:53;;;;;;;10.52;6.20;;;;;;;8.04;100.00;93447.22;2105868;28;20027;-84
2021/08/17 03:51:54;;;;;;;8.55;5.53;;;;;;;7.97;100.00;93448.00;2089405;28;20036;-85
2021/08/17 03:52:54;;;;;;;10.23;5.10;;;;;;;7.89;100.00;93454.50;2089259;28;20061;-83
2021/08/17 03:53:55;;;;;;;7.78;5.57;;;;;;;7.84;100.00;93449.59;2089277;28;20025;-82
2021/08/17 03:54:56;;;;;;;12.32;5.78;;;;;;;7.85;100.00;93442.38;2097185;28;20086;-84
2021/08/17 03:55:57;;;;;;;8.95;5.22;;;;;;;7.82;100.00;93446.59;2105990;28;20036;-85
2021/08/17 03:56:58;;;;;;;13.80;5.78;;;;;;;7.91;100.00;93438.94;2097594;28;20029;-85
2021/08/17 03:57:59;;;;;;;7.85;5.38;;;;;;;7.83;100.00;93448.84;2097299;28;20063;-83
2021/08/17 03:59:00;;;;;;;8.38;5.70;;;;;;;7.73;100.00;93444.34;2097754;28;20025;-83
2021/08/17 04:00:03;;;;;;;9.88;5.43;;;;;;;7.75;100.00;93452.69;2105560;28;20028;-84
2021/08/17 04:01:04;;;;;;;9.30;5.32;;;;;;;7.80;100.00;93449.63;2106359;28;20041;-82
2021/08/17 04:02:05;;;;;;;8.80;4.50;;;;;;;7.85;100.00;93447.69;2106085;28;20535;-82
2021/08/17 04:03:07;;;;;;;11.85;5.45;;;;;;;7.84;100.00;93446.94;2100501;28;20020;-83
2021/08/17 04:04:08;;;;;;;9.43;5.75;;;;;;;7.71;100.00;93446.63;2089737;28;20475;-83
2021/08/17 04:05:10;;;;;;;10.75;6.97;;;;;;;7.71;100.00;93445.88;2089264;28;20029;-83
2021/08/17 04:06:11;;;;;;;8.73;5.22;;;;;;;7.71;100.00;93446.63;2096980;28;20142;-83
2021/08/17 04:07:12;;;;;;;9.23;5.80;;;;;;;7.78;100.00;93443.19;2105748;28;20036;-83
2021/08/17 04:08:13;;;;;;;9.40;5.18;;;;;;;7.69;100.00;93451.59;2088740;28;20021;-84
2021/08/17 04:09:14;;;;;;;7.22;5.10;;;;;;;7.61;100.00;93447.47;2089171;28;20025;-81
2021/08/17 04:10:15;;;;;;;7.30;5.22;;;;;;;7.69;100.00;93448.19;2093510;28;20055;-85
2021/08/17 04:11:16;;;;;;;9.85;5.57;;;;;;;7.58;100.00;93448.22;2093009;28;20119;-84
2021/08/17 04:12:17;;;;;;;7.82;5.15;;;;;;;7.40;100.00;93448.31;2089110;28;20017;-84
2021/08/17 04:13:18;;;;;;;9.00;5.32;;;;;;;7.25;100.00;93444.22;2089156;28;20028;-85
2021/08/17 04:14:18;;;;;;;6.40;4.95;;;;;;;7.32;100.00;93446.81;2097334;28;20404;-83
2021/08/17 04:15:19;;;;;;;8.57;4.78;;;;;;;7.20;100.00;93444.59;2097497;28;20024;-83
2021/08/17 04:16:20;;;;;;;8.02;4.97;;;;;;;7.28;100.00;93443.41;2097498;28;20065;-82
2021/08/17 04:17:21;;;;;;;8.25;5.25;;;;;;;7.34;100.00;93444.56;2113671;28;20118;-83
2021/08/17 04:18:22;;;;;;;10.00;5.15;;;;;;;7.19;100.00;93445.72;2097039;28;20452;-83
2021/08/17 04:19:24;;;;;;;7.88;4.85;;;;;;;7.22;100.00;93455.59;2097195;28;20107;-84
2021/08/17 04:20:25;;;;;;;12.13;5.03;;;;;;;7.19;100.00;93449.16;2097569;28;20025;-85
2021/08/17 04:21:26;;;;;;;9.00;4.57;;;;;;;7.13;100.00;93455.25;2097434;28;20070;-82
2021/08/17 04:22:27;;;;;;;8.25;4.72;;;;;;;7.00;100.00;93460.22;2097159;28;20055;-85
2021/08/17 04:23:28;;;;;;;6.13;4.30;;;;;;;7.00;100.00;93455.66;2096776;28;20450;-82
2021/08/17 04:24:29;;;;;;;7.13;4.20;;;;;;;6.99;100.00;93453.41;2089130;28;20119;-84
2021/08/17 04:25:30;;;;;;;10.27;4.57;;;;;;;7.04;100.00;93453.75;2098604;28;20032;-84
2021/08/17 04:26:32;;;;;;;7.80;5.30;;;;;;;6.97;100.00;93459.09;2108173;28;20028;-82
2021/08/17 04:27:33;;;;;;;7.07;4.68;;;;;;;6.90;100.00;93458.38;2097458;28;20042;-83
2021/08/17 04:28:34;;;;;;;7.25;4.50;;;;;;;6.82;100.00;93447.75;2096990;28;20391;-83
2021/08/17 04:29:37;;;;;;;5.88;4.00;;;;;;;6.84;100.00;93454.56;2104958;28;20047;-83
2021/08/17 04:30:38;;;;;;;7.25;4.50;;;;;;;6.78;100.00;93460.28;2105763;28;20016;-83
2021/08/17 04:31:39;;;;;;;5.13;4.18;;;;;;;6.82;100.00;93460.28;2105673;28;20454;-85
2021/08/17 04:32:40;;;;;;;8.52;4.65;;;;;;;6.76;100.00;93451.94;2097334;28;20323;-82
2021/08/17 04:33:41;;;;;;;9.25;4.88;;;;;;;6.73;100.00;93463.31;2088696;28;20123;-83
2021/08/17 04:34:42;;;;;;;6.10;4.07;;;;;;;6.84;100.00;93462.53;2105310;28;20024;-83
2021/08/17 04:35:43;;;;;;;5.65;4.60;;;;;;;6.94;100.00;93457.22;2097267;28;20478;-82
2021/08/17 04:36:44;;;;;;;7.93;5.38;;;;;;;6.87;100.00;93454.56;2097341;28;20039;-82
2021/08/17 04:37:46;;;;;;;7.03;4.55;;;;;;;6.89;100.00;93457.59;2097158;28;20028;-81
2021/08/17 04:38:47;;;;;;;8.55;4.95;;;;;;;6.95;100.00;93456.06;2089315;28;20051;-84
2021/08/17 04:39:48;;;;;;;8.70;5.13;;;;;;;7.05;100.00;93451.84;2096471;28;20032;-83
2021/08/17 04:40:49;;;;;;;7.68;4.93;;;;;;;7.10;100.00;93456.78;2088937;28;20020;-85
2021/08/17 04:41:50;;;;;;;7.72;4.70;;;;;;;7.13;100.00;93447.28;2109772;28;20019;-85
2021/08/17 04:42:51;;;;;;;9.20;5.35;;;;;;;7.16;100.00;93452.59;2108152;28;20476;-84
2021/08/17 04:43:52;;;;;;;8.98;5.00;;;;;;;7.16;100.00;93455.25;2088824;28;20021;-85
2021/08/17 04:44:53;;;;;;;10.20;4.90;;;;;;;7.19;100.00;93451.81;2089071;28;20495;-83